Brownfield, TX (79316)

4:30 PM CDT on September 01, 2014 (GMT -0500)
WT_Meso Brownfield 2S | Change Station
CLOSE
Current Station
Personal Weather Station
Location: Brownfield, TX
Elevation: 3313 ft
Nearby Weather Stations

Elev 3313 ft 33.15 °N, 102.27 °W | Updated 35 minutes ago

Clear
Clear
101 °F
Feels Like 96 °F
N
10
Wind Variable Wind from SSW
Gusts 17.0 mph

Today
High -- | Low -- °F
--% Chance of Precip.
Yesterday
High -- | Low -- °F
Precip. -- in
7:23 AM 8:14 PM
Waxing Crescent, 44% visible
Pressure 29.88 in
Visibility 10.0 miles
Clouds Clear
Heat Index 96 °F
Dew Point 37 °F
Humidity 11%
Rainfall -999.00 in
Snow Depth Not available.
UV 7 out of 12
Pollen 11.00 out of 12
Air Quality Not available.
Flu Activity Not available.
METAR KGNC 012115Z AUTO 24006KT 10SM CLR 39/05 A2988 RMK AO2 T03890049

More Conditions Fewer Conditions

Pressure 29.88 in
Visibility 10.0 miles
Clouds Clear
Heat Index 96 °F
Dew Point 37 °F
Humidity 11%
Rainfall -999.00 in
Snow Depth Not available.
UV 7 out of 12
Pollen 11.00 out of 12
Air Quality Not available.
Flu Activity Not available.
METAR KGNC 012115Z AUTO 24006KT 10SM CLR 39/05 A2988 RMK AO2 T03890049

More Conditions Fewer Conditions

10-Day Weather Forecast

Almanac

Astronomy

Sep. 01, 2014 Rise Set
Actual Time 7:23 AM CDT 8:14 PM CDT
Civil Twilight 6:58 AM CDT 8:39 PM CDT
Nautical Twilight 6:28 AM CDT 9:09 PM CDT
Astronomical Twilight 5:57 AM CDT 9:39 PM CDT
Moon 1:50 PM CDT No Moon Set
Length of Visible Light 13h 41m
Length of Day
12h 50m
Tomorrow will be 1m 57s shorter.
Waxing Crescent, 44% of the Moon is Illuminated
Today
Waxing Crescent
Sep 2
First Quarter
Sep 8
Full
Sep 15
Last Quarter
Sep 24
New

Today's Extremes

State Highs State Lows

Community

WunderPhotos

Upload Photos

1,749,416 photos uploaded!

WunderBlogs® & News

Nearby

Snow Depth

Station Depth Elevation
No new snow has been reported.

Earthquake Activity

City Distance Mag. Time & Date
No recent earthquake activity has been reported nearby.
Minimum magnitude displayed is 2.5.

Coastal Water Temperatures

Place Temperature
No Stations Reporting

Nearby Weather Stations